createdAt,value
2022-09-06T00:04:37.188Z,65.40
2022-09-06T00:09:42.375Z,65.30
2022-09-06T00:14:46.006Z,64.90
2022-09-06T00:19:49.933Z,64.90
2022-09-06T00:24:54.837Z,64.90
2022-09-06T00:29:58.292Z,64.80
2022-09-06T00:35:01.857Z,64.70
2022-09-06T00:40:09.197Z,64.60
2022-09-06T00:45:13.683Z,64.90
2022-09-06T00:50:19.391Z,64.70
2022-09-06T00:55:25.437Z,64.90
2022-09-06T01:00:29.031Z,64.50
2022-09-06T01:05:56.897Z,64.40
2022-09-06T01:11:42.654Z,64.40
2022-09-06T01:16:55.477Z,64.40
2022-09-06T01:22:16.515Z,64.40
2022-09-06T01:28:10.778Z,64.50
2022-09-06T01:33:25.953Z,64.40
2022-09-06T01:38:30.288Z,64.20
2022-09-06T01:43:40.860Z,64.30
2022-09-06T01:49:19.036Z,64.30
2022-09-06T01:54:42.420Z,64.30
2022-09-06T02:00:08.045Z,64.20
2022-09-06T02:05:29.184Z,64.20
2022-09-06T02:10:41.478Z,64.40
2022-09-06T02:15:52.760Z,64.50
2022-09-06T02:20:59.352Z,64.50
2022-09-06T02:26:10.893Z,64.50
2022-09-06T02:31:22.566Z,64.50
2022-09-06T02:36:26.867Z,64.60
2022-09-06T02:41:32.111Z,64.40
2022-09-06T02:46:36.941Z,64.60
2022-09-06T02:51:41.462Z,64.70
2022-09-06T02:56:47.048Z,64.50
2022-09-06T03:01:55.244Z,64.40
2022-09-06T03:06:58.881Z,63.70
2022-09-06T03:12:02.551Z,64.20
2022-09-06T03:17:07.585Z,64.00
2022-09-06T03:22:11.196Z,64.00
2022-09-06T03:27:14.820Z,64.20
2022-09-06T03:32:19.740Z,64.00
2022-09-06T03:37:23.300Z,63.60
2022-09-06T03:42:27.570Z,64.10
2022-09-06T03:47:32.653Z,64.20
2022-09-06T03:52:36.208Z,64.00
2022-09-06T03:57:39.802Z,64.00
2022-09-06T04:02:44.678Z,63.70
2022-09-06T04:07:48.266Z,63.50
2022-09-06T04:12:51.813Z,63.40
2022-09-06T04:17:57.244Z,63.40
2022-09-06T04:23:00.781Z,63.20
2022-09-06T04:28:04.648Z,63.20
2022-09-06T04:33:09.548Z,63.10
2022-09-06T04:38:13.052Z,63.10
2022-09-06T04:43:16.917Z,63.70
2022-09-06T04:48:22.108Z,63.50
2022-09-06T04:53:25.831Z,63.70
2022-09-06T04:58:29.535Z,63.60
2022-09-06T05:03:34.482Z,63.70
2022-09-06T05:08:39.973Z,63.70
2022-09-06T05:13:43.897Z,63.50
2022-09-06T05:18:48.751Z,63.30
2022-09-06T05:23:55.467Z,63.60
2022-09-06T05:29:01.974Z,63.60
2022-09-06T05:34:07.203Z,63.70
2022-09-06T05:39:10.727Z,63.80
2022-09-06T05:44:14.539Z,63.70
2022-09-06T05:49:19.694Z,63.70
2022-09-06T05:54:23.499Z,63.70
2022-09-06T05:59:27.413Z,63.70
2022-09-06T06:04:32.468Z,63.70
2022-09-06T06:09:36.196Z,63.70
2022-09-06T06:14:39.729Z,63.70
2022-09-06T06:19:44.627Z,64.00
2022-09-06T06:24:48.175Z,64.10
2022-09-06T06:29:52.539Z,64.10
2022-09-06T06:34:57.469Z,64.30
2022-09-06T06:40:01.120Z,64.30
2022-09-06T06:45:05.656Z,64.60
2022-09-06T06:50:11.756Z,64.90
2022-09-06T06:55:15.705Z,64.70
2022-09-06T07:00:19.595Z,64.90
2022-09-06T07:10:48.552Z,64.60
2022-09-06T07:15:52.649Z,64.70
2022-09-06T07:26:26.297Z,64.80
2022-09-06T07:36:57.906Z,65.50
2022-09-06T07:42:01.595Z,65.40
2022-09-06T07:57:55.227Z,65.90
2022-09-06T08:02:58.856Z,65.90
2022-09-06T08:13:28.194Z,65.90
2022-09-06T08:18:31.948Z,65.70
2022-09-06T08:23:36.964Z,65.80
2022-09-06T08:28:40.670Z,66.10
2022-09-06T08:33:45.631Z,65.70
2022-09-06T08:38:50.733Z,66.00
2022-09-06T08:49:22.349Z,65.70
2022-09-06T08:54:38.531Z,66.10
2022-09-06T08:59:44.237Z,66.30
2022-09-06T09:04:53.767Z,66.40
2022-09-06T09:10:00.940Z,66.60
2022-09-06T09:15:12.682Z,66.60
2022-09-06T09:20:16.484Z,66.70
2022-09-06T09:25:25.238Z,66.50
2022-09-06T09:30:49.358Z,65.80
2022-09-06T09:35:53.862Z,66.30
2022-09-06T09:41:02.215Z,65.50
2022-09-06T09:46:18.591Z,65.30
2022-09-06T09:51:27.731Z,65.30
2022-09-06T09:56:49.394Z,64.90
2022-09-06T10:01:57.185Z,64.90
2022-09-06T10:07:15.644Z,64.50
2022-09-06T10:12:32.267Z,64.10
2022-09-06T10:17:39.803Z,63.10
2022-09-06T10:22:58.627Z,63.20
2022-09-06T10:28:32.415Z,63.00
2022-09-06T10:33:55.613Z,63.20
2022-09-06T10:39:04.213Z,63.10
2022-09-06T10:44:36.983Z,63.70
2022-09-06T10:49:45.647Z,62.80
2022-09-06T10:54:49.638Z,63.10
2022-09-06T11:00:00.064Z,62.60
2022-09-06T11:10:40.329Z,61.50
2022-09-06T11:15:52.130Z,61.50
2022-09-06T11:21:34.553Z,61.50
2022-09-06T11:26:46.187Z,61.60
2022-09-06T11:32:17.053Z,61.60
2022-09-06T11:37:29.145Z,61.50
2022-09-06T11:43:17.871Z,61.40
2022-09-06T11:49:03.480Z,61.30
2022-09-06T11:54:29.316Z,61.10
2022-09-06T11:59:44.062Z,61.00
2022-09-06T12:05:22.124Z,61.20
2022-09-06T12:10:57.503Z,61.00
2022-09-06T12:16:01.831Z,60.70
2022-09-06T12:21:07.143Z,60.10
2022-09-06T12:26:12.991Z,60.00
2022-09-06T12:31:39.712Z,60.10
2022-09-06T12:36:57.395Z,60.40
2022-09-06T12:42:06.646Z,59.70
2022-09-06T12:47:15.082Z,59.90
2022-09-06T12:52:21.570Z,58.80
2022-09-06T12:57:27.116Z,59.30
2022-09-06T13:02:41.287Z,58.50
2022-09-06T13:07:53.618Z,58.20
2022-09-06T13:12:59.992Z,57.90
2022-09-06T13:18:27.389Z,57.60
2022-09-06T13:23:44.029Z,57.30
2022-09-06T13:28:47.620Z,57.10
2022-09-06T13:33:58.138Z,56.20
2022-09-06T13:39:04.393Z,56.10
2022-09-06T13:44:21.420Z,55.30
2022-09-06T13:49:26.036Z,54.80
2022-09-06T13:54:32.261Z,54.90
2022-09-06T13:59:35.743Z,54.70
2022-09-06T14:04:39.528Z,55.00
2022-09-06T14:09:44.456Z,54.50
2022-09-06T14:14:48.098Z,54.90
2022-09-06T14:19:51.704Z,55.50
2022-09-06T14:24:56.610Z,54.70
2022-09-06T14:30:00.368Z,54.40
2022-09-06T14:35:05.581Z,54.70
2022-09-06T14:40:11.875Z,56.10
2022-09-06T14:45:15.648Z,57.10
2022-09-06T14:50:20.002Z,56.80
2022-09-06T14:55:25.059Z,56.20
2022-09-06T15:00:28.733Z,56.10
2022-09-06T15:05:32.269Z,56.80
2022-09-06T15:10:37.140Z,56.20
2022-09-06T15:15:40.668Z,55.80
2022-09-06T15:20:44.940Z,55.30
2022-09-06T15:25:52.177Z,54.30
2022-09-06T15:30:55.898Z,55.50
2022-09-06T15:36:00.709Z,55.60
2022-09-06T15:41:12.374Z,56.20
2022-09-06T15:46:18.461Z,55.50
2022-09-06T15:51:23.379Z,56.70
2022-09-06T15:56:28.367Z,56.90
2022-09-06T16:01:34.030Z,56.80
2022-09-06T16:06:42.687Z,57.50
2022-09-06T16:11:47.809Z,56.50
2022-09-06T16:16:54.893Z,56.80
2022-09-06T16:21:58.960Z,57.00
2022-09-06T16:27:03.994Z,56.70
2022-09-06T16:32:07.747Z,57.60
2022-09-06T16:37:11.383Z,57.10
2022-09-06T16:42:16.418Z,57.80
2022-09-06T16:47:20.040Z,57.50
2022-09-06T16:52:23.816Z,57.20
2022-09-06T16:57:28.734Z,57.30
2022-09-06T17:02:32.313Z,57.80
2022-09-06T17:07:35.987Z,58.60
2022-09-06T17:12:40.821Z,59.40
2022-09-06T17:17:44.424Z,59.60
2022-09-06T17:22:51.841Z,60.50
2022-09-06T17:27:57.765Z,60.80
2022-09-06T17:33:01.365Z,60.60
2022-09-06T17:38:04.925Z,60.80
2022-09-06T17:43:10.031Z,60.90
2022-09-06T17:48:13.518Z,61.00
2022-09-06T17:53:17.083Z,61.20
2022-09-06T17:58:22.415Z,61.60
2022-09-06T18:03:26.242Z,61.70
2022-09-06T18:08:29.923Z,61.90
2022-09-06T18:13:34.955Z,62.10
2022-09-06T18:18:38.593Z,62.30
2022-09-06T18:23:42.221Z,62.60
2022-09-06T18:28:47.517Z,62.60
2022-09-06T18:33:51.536Z,62.90
2022-09-06T18:38:55.327Z,62.80
2022-09-06T18:44:02.587Z,63.00
2022-09-06T18:49:07.435Z,63.00
2022-09-06T18:54:11.268Z,63.20
2022-09-06T18:59:16.400Z,64.00
2022-09-06T19:04:20.043Z,64.00
2022-09-06T19:09:24.295Z,63.30
2022-09-06T19:14:29.543Z,63.30
2022-09-06T19:19:33.061Z,63.10
2022-09-06T19:24:39.181Z,63.50
2022-09-06T19:29:44.355Z,63.50
2022-09-06T19:34:47.941Z,63.70
2022-09-06T19:39:51.663Z,63.60
2022-09-06T19:44:56.759Z,63.80
2022-09-06T19:50:00.244Z,63.70
2022-09-06T19:55:03.826Z,63.80
2022-09-06T20:00:11.144Z,63.80
2022-09-06T20:05:16.967Z,64.00
2022-09-06T20:10:20.805Z,63.90
2022-09-06T20:15:26.913Z,63.80
2022-09-06T20:20:30.563Z,63.90
2022-09-06T20:25:34.099Z,64.00
2022-09-06T20:30:44.974Z,64.20
2022-09-06T20:35:57.174Z,64.30
2022-09-06T20:41:04.055Z,64.40
2022-09-06T20:46:14.362Z,64.90
2022-09-06T20:51:21.250Z,65.10
2022-09-06T20:56:27.893Z,65.20
2022-09-06T21:01:36.705Z,65.70
2022-09-06T21:06:41.526Z,65.90
2022-09-06T21:11:45.472Z,65.80
2022-09-06T21:16:50.716Z,66.10
2022-09-06T21:21:54.360Z,65.10
2022-09-06T21:26:57.878Z,64.90
2022-09-06T21:32:03.245Z,65.40
2022-09-06T21:37:08.438Z,65.80
2022-09-06T21:42:12.560Z,66.10
2022-09-06T21:47:17.754Z,66.20
2022-09-06T21:52:21.406Z,66.40
2022-09-06T21:57:25.289Z,66.20
2022-09-06T22:02:33.876Z,66.60
2022-09-06T22:07:38.337Z,66.00
2022-09-06T22:12:43.406Z,66.00
2022-09-06T22:17:48.696Z,65.40
2022-09-06T22:22:52.327Z,65.70
2022-09-06T22:27:55.977Z,65.40
2022-09-06T22:33:01.751Z,65.30
2022-09-06T22:38:05.410Z,65.20
2022-09-06T22:43:09.114Z,65.10
2022-09-06T22:48:15.296Z,65.10
2022-09-06T22:53:19.135Z,65.20
2022-09-06T22:58:23.316Z,65.10
2022-09-06T23:03:28.760Z,65.00
2022-09-06T23:08:33.155Z,65.10
2022-09-06T23:13:38.356Z,65.20
2022-09-06T23:18:43.922Z,65.20
2022-09-06T23:23:49.367Z,65.40
2022-09-06T23:28:56.592Z,65.10
2022-09-06T23:34:02.552Z,65.40
2022-09-06T23:39:07.739Z,66.00
2022-09-06T23:44:11.592Z,65.40
2022-09-06T23:49:16.889Z,65.40
2022-09-06T23:54:20.565Z,65.30
2022-09-06T23:59:24.324Z,65.30
